^^
TXWeather Station Historical Data
 
Daily Summary for January 31, 2023 Units:  English    Metric   Both
Daily Weekly Monthly Yearly Custom
  Current: High: Low: Average:
Temperature: 37.6 °F 41.5 °F 36.0 °F 38.4 °F
Dew Point: 34.9 °F 39.2 °F 33.8 °F 36.2 °F
Humidity: 90% 93% 88% 92%
Wind Speed: 19mph 19mph 5mph 11mph
Wind Gust: 19mph 19mph - -
WindNorth - - West
Pressure: 30.3 in 30.3 in 30.2 in -
Precipitation: 0.000 in      
Historical Graphs
 
 
Tabular Data for January 31, 2023
Time Temperature Dew Point Pressure Wind Wind Speed Wind Gust Humidity Rainfall Rate (Hourly) solar
00:04 36.5 °F 34.3 °F 30.3 in North 11 mph 11 mph 92% 0.000 in 0.00 W/m2
00:09 36.3 °F 34.2 °F 30.3 in North 11 mph 11 mph 92% 0.000 in 0.00 W/m2
00:14 36.3 °F 34.2 °F 30.3 in North 11 mph 11 mph 92% 0.000 in 0.00 W/m2
00:19 36.3 °F 34.5 °F 30.3 in North 14 mph 14 mph 93% 0.000 in 0.00 W/m2
00:24 36.3 °F 34.2 °F 30.3 in North 10 mph 14 mph 92% 0.000 in 0.00 W/m2
00:29 36.3 °F 34.5 °F 30.3 in North 10 mph 10 mph 93% 0.000 in 0.00 W/m2
00:34 36.3 °F 34.5 °F 30.3 in North 11 mph 13 mph 93% 0.000 in 0.00 W/m2
00:39 36.3 °F 34.5 °F 30.2 in North 13 mph 13 mph 93% 0.000 in 0.00 W/m2
00:44 36.1 °F 34.3 °F 30.2 in North 12 mph 12 mph 93% 0.000 in 0.00 W/m2
00:49 36.1 °F 34.3 °F 30.2 in NNW 13 mph 13 mph 93% 0.000 in 0.00 W/m2
00:54 36.1 °F 34.3 °F 30.2 in NNW 9 mph 13 mph 93% 0.000 in 0.00 W/m2
00:59 36.1 °F 34.3 °F 30.2 in North 10 mph 11 mph 93% 0.000 in 0.00 W/m2
01:04 36.1 °F 34.3 °F 30.2 in North 11 mph 11 mph 93% 0.000 in 0.00 W/m2
01:09 36.1 °F 34.2 °F 30.2 in North 11 mph 11 mph 93% 0.000 in 0.00 W/m2
01:14 36.1 °F 34.0 °F 30.2 in North 11 mph 12 mph 92% 0.000 in 0.00 W/m2
01:19 36.1 °F 34.3 °F 30.2 in NNW 11 mph 11 mph 93% 0.000 in 0.00 W/m2
01:24 36.0 °F 33.8 °F 30.2 in NNW 10 mph 11 mph 92% 0.000 in 0.00 W/m2
01:29 36.0 °F 34.2 °F 30.2 in North 12 mph 12 mph 93% 0.000 in 0.00 W/m2
01:34 36.1 °F 34.2 °F 30.2 in NNW 10 mph 12 mph 93% 0.000 in 0.00 W/m2
01:39 36.1 °F 34.3 °F 30.2 in NNW 12 mph 12 mph 93% 0.000 in 0.00 W/m2
01:44 36.1 °F 34.2 °F 30.2 in North 10 mph 11 mph 93% 0.000 in 0.00 W/m2
01:49 36.0 °F 33.8 °F 30.2 in North 14 mph 14 mph 92% 0.000 in 0.00 W/m2
01:54 36.0 °F 34.2 °F 30.2 in North 12 mph 14 mph 93% 0.000 in 0.00 W/m2
01:59 36.0 °F 34.2 °F 30.3 in North 12 mph 13 mph 93% 0.000 in 0.00 W/m2
02:04 36.0 °F 34.2 °F 30.3 in NNW 9 mph 12 mph 93% 0.000 in 0.00 W/m2
02:09 36.0 °F 33.8 °F 30.3 in NNW 12 mph 13 mph 92% 0.000 in 0.00 W/m2
02:14 36.0 °F 34.2 °F 30.3 in NNW 13 mph 13 mph 93% 0.000 in 0.00 W/m2
02:19 36.0 °F 33.8 °F 30.3 in NNW 14 mph 14 mph 92% 0.000 in 0.00 W/m2
02:24 36.0 °F 33.8 °F 30.2 in NNW 12 mph 14 mph 92% 0.000 in 0.00 W/m2
02:29 36.0 °F 33.8 °F 30.2 in North 12 mph 12 mph 92% 0.000 in 0.00 W/m2
02:34 36.0 °F 33.8 °F 30.2 in North 12 mph 12 mph 92% 0.000 in 0.00 W/m2
02:39 36.0 °F 33.8 °F 30.2 in North 9 mph 12 mph 92% 0.000 in 0.00 W/m2
02:44 36.1 °F 34.0 °F 30.2 in North 11 mph 11 mph 92% 0.000 in 0.00 W/m2
02:49 36.1 °F 34.3 °F 30.2 in North 15 mph 15 mph 93% 0.000 in 0.00 W/m2
02:54 36.1 °F 34.3 °F 30.2 in North 11 mph 15 mph 93% 0.000 in 0.00 W/m2
02:59 36.1 °F 34.3 °F 30.2 in NNE 8 mph 11 mph 93% 0.000 in 0.00 W/m2
03:04 36.1 °F 34.3 °F 30.2 in North 11 mph 11 mph 93% 0.000 in 0.00 W/m2
03:09 36.1 °F 34.3 °F 30.2 in North 12 mph 12 mph 93% 0.000 in 0.00 W/m2
03:14 36.1 °F 34.3 °F 30.2 in NNE 12 mph 12 mph 93% 0.000 in 0.00 W/m2
03:19 36.1 °F 34.3 °F 30.2 in North 13 mph 14 mph 93% 0.000 in 0.00 W/m2
03:24 36.0 °F 34.2 °F 30.2 in NNW 13 mph 13 mph 93% 0.000 in 0.00 W/m2
03:29 36.0 °F 34.2 °F 30.2 in North 9 mph 10 mph 93% 0.000 in 0.00 W/m2
03:34 36.0 °F 34.2 °F 30.2 in NNW 9 mph 10 mph 93% 0.000 in 0.00 W/m2
03:39 36.0 °F 34.2 °F 30.2 in North 9 mph 9 mph 93% 0.000 in 0.00 W/m2
03:44 36.1 °F 34.3 °F 30.2 in North 8 mph 9 mph 93% 0.000 in 0.00 W/m2
03:49 36.1 °F 34.3 °F 30.2 in North 8 mph 9 mph 93% 0.000 in 0.00 W/m2
03:54 36.1 °F 34.3 °F 30.2 in NNW 9 mph 9 mph 93% 0.000 in 0.00 W/m2
03:59 36.1 °F 34.3 °F 30.2 in NNW 10 mph 10 mph 93% 0.000 in 0.00 W/m2
04:04 36.1 °F 34.3 °F 30.2 in North 11 mph 11 mph 93% 0.000 in 0.00 W/m2
04:09 36.1 °F 34.3 °F 30.2 in North 11 mph 12 mph 93% 0.000 in 0.00 W/m2
04:14 36.3 °F 34.5 °F 30.2 in North 10 mph 10 mph 93% 0.000 in 0.00 W/m2
04:19 36.3 °F 34.5 °F 30.2 in NNW 12 mph 12 mph 93% 0.000 in 0.00 W/m2
04:24 36.3 °F 34.5 °F 30.2 in North 10 mph 11 mph 93% 0.000 in 0.00 W/m2
04:29 36.5 °F 34.7 °F 30.2 in NNW 12 mph 12 mph 93% 0.000 in 0.00 W/m2
04:34 36.5 °F 34.7 °F 30.2 in NNW 10 mph 11 mph 93% 0.000 in 0.00 W/m2
04:39 36.7 °F 34.9 °F 30.2 in North 11 mph 11 mph 93% 0.000 in 0.00 W/m2
04:44 36.7 °F 34.9 °F 30.2 in North 11 mph 11 mph 93% 0.000 in 0.00 W/m2
04:49 36.7 °F 34.9 °F 30.2 in North 11 mph 12 mph 93% 0.000 in 0.00 W/m2
04:54 36.7 °F 34.9 °F 30.2 in North 12 mph 12 mph 93% 0.000 in 0.00 W/m2
04:59 36.7 °F 34.9 °F 30.2 in North 12 mph 14 mph 93% 0.000 in 0.00 W/m2
05:04 36.9 °F 35.1 °F 30.2 in North 12 mph 14 mph 93% 0.000 in 0.00 W/m2
05:09 36.9 °F 35.1 °F 30.2 in North 8 mph 12 mph 93% 0.000 in 0.00 W/m2
05:14 37.0 °F 35.2 °F 30.2 in North 13 mph 15 mph 93% 0.000 in 0.00 W/m2
05:19 37.0 °F 35.2 °F 30.2 in NNW 8 mph 15 mph 93% 0.000 in 0.00 W/m2
05:24 37.0 °F 35.2 °F 30.2 in North 9 mph 9 mph 93% 0.000 in 0.00 W/m2
05:29 37.0 °F 35.2 °F 30.2 in NNW 9 mph 9 mph 93% 0.000 in 0.00 W/m2
05:34 37.0 °F 35.2 °F 30.2 in NNW 11 mph 11 mph 93% 0.000 in 0.00 W/m2
05:39 37.0 °F 35.2 °F 30.2 in North 9 mph 10 mph 93% 0.000 in 0.00 W/m2
05:44 37.2 °F 35.4 °F 30.2 in North 10 mph 11 mph 93% 0.000 in 0.00 W/m2
05:49 37.2 °F 35.4 °F 30.2 in North 5 mph 10 mph 93% 0.000 in 0.00 W/m2
05:54 37.4 °F 35.6 °F 30.2 in North 10 mph 12 mph 93% 0.000 in 0.00 W/m2
05:59 37.4 °F 35.6 °F 30.2 in North 12 mph 12 mph 93% 0.000 in 0.00 W/m2
06:04 37.6 °F 35.8 °F 30.2 in North 12 mph 13 mph 93% 0.000 in 0.00 W/m2
06:09 37.6 °F 35.8 °F 30.2 in North 9 mph 10 mph 93% 0.000 in 0.00 W/m2
06:14 37.6 °F 35.8 °F 30.2 in North 10 mph 10 mph 93% 0.000 in 0.00 W/m2
06:19 37.6 °F 35.8 °F 30.2 in North 10 mph 10 mph 93% 0.000 in 0.00 W/m2
06:24 37.8 °F 36.0 °F 30.2 in North 10 mph 11 mph 93% 0.000 in 0.00 W/m2
06:29 37.6 °F 35.8 °F 30.2 in North 11 mph 11 mph 93% 0.000 in 0.00 W/m2
06:34 37.6 °F 35.8 °F 30.2 in North 14 mph 14 mph 93% 0.000 in 0.00 W/m2
06:39 37.6 °F 35.8 °F 30.2 in North 13 mph 15 mph 93% 0.000 in 0.00 W/m2
06:44 37.8 °F 36.0 °F 30.3 in North 9 mph 15 mph 93% 0.000 in 0.00 W/m2
06:49 37.8 °F 36.0 °F 30.3 in North 13 mph 14 mph 93% 0.000 in 0.00 W/m2
06:54 37.8 °F 36.0 °F 30.2 in North 10 mph 14 mph 93% 0.000 in 0.00 W/m2
06:59 37.8 °F 36.0 °F 30.3 in North 14 mph 14 mph 93% 0.000 in 0.00 W/m2
07:04 37.8 °F 36.0 °F 30.3 in North 11 mph 12 mph 93% 0.000 in 0.00 W/m2
07:09 37.8 °F 36.0 °F 30.3 in North 13 mph 13 mph 93% 0.000 in 0.00 W/m2
07:14 37.9 °F 36.1 °F 30.3 in North 8 mph 11 mph 93% 0.000 in 0.00 W/m2
07:19 37.9 °F 36.1 °F 30.3 in North 11 mph 11 mph 93% 0.000 in 0.00 W/m2
07:24 37.9 °F 36.1 °F 30.3 in North 14 mph 14 mph 93% 0.000 in 0.00 W/m2
07:29 38.1 °F 36.3 °F 30.3 in NNW 11 mph 14 mph 93% 0.000 in 0.00 W/m2
07:34 38.1 °F 36.3 °F 30.3 in North 10 mph 10 mph 93% 0.000 in 5.00 W/m2
07:39 38.3 °F 36.5 °F 30.3 in NNE 12 mph 12 mph 93% 0.000 in 9.00 W/m2
07:44 38.5 °F 36.7 °F 30.3 in North 10 mph 10 mph 93% 0.000 in 9.00 W/m2
07:49 38.5 °F 36.7 °F 30.3 in North 11 mph 12 mph 93% 0.000 in 12.00 W/m2
07:54 38.5 °F 36.7 °F 30.3 in North 11 mph 12 mph 93% 0.000 in 21.00 W/m2
07:59 38.7 °F 36.9 °F 30.3 in North 11 mph 11 mph 93% 0.000 in 21.00 W/m2
08:04 38.7 °F 36.9 °F 30.3 in North 12 mph 12 mph 93% 0.000 in 21.00 W/m2
08:09 38.8 °F 37.0 °F 30.3 in North 9 mph 12 mph 93% 0.000 in 26.00 W/m2
08:14 38.8 °F 37.0 °F 30.3 in North 9 mph 10 mph 93% 0.000 in 23.00 W/m2
08:19 39.0 °F 37.2 °F 30.3 in North 11 mph 11 mph 93% 0.000 in 26.00 W/m2
08:24 39.0 °F 37.2 °F 30.3 in North 9 mph 11 mph 93% 0.000 in 32.00 W/m2
08:29 39.0 °F 37.2 °F 30.3 in North 10 mph 10 mph 93% 0.000 in 30.00 W/m2
08:34 39.2 °F 37.4 °F 30.3 in North 11 mph 11 mph 93% 0.000 in 33.00 W/m2
08:39 39.4 °F 37.6 °F 30.3 in North 9 mph 11 mph 93% 0.000 in 37.00 W/m2
08:44 39.4 °F 37.6 °F 30.3 in NNE 13 mph 13 mph 93% 0.000 in 46.00 W/m2
08:49 39.6 °F 37.8 °F 30.3 in North 11 mph 12 mph 93% 0.000 in 63.00 W/m2
08:54 39.6 °F 37.8 °F 30.3 in North 8 mph 12 mph 93% 0.000 in 39.00 W/m2
08:59 39.6 °F 37.8 °F 30.3 in NNE 13 mph 13 mph 93% 0.000 in 37.00 W/m2
09:04 39.6 °F 37.8 °F 30.3 in North 9 mph 9 mph 93% 0.000 in 25.00 W/m2
09:09 39.6 °F 37.8 °F 30.3 in North 13 mph 13 mph 93% 0.000 in 33.00 W/m2
09:14 39.7 °F 37.9 °F 30.3 in North 11 mph 11 mph 93% 0.000 in 58.00 W/m2
09:19 39.7 °F 37.9 °F 30.3 in North 11 mph 12 mph 93% 0.000 in 74.00 W/m2
09:24 39.9 °F 38.1 °F 30.3 in North 9 mph 11 mph 93% 0.000 in 63.00 W/m2
09:29 40.1 °F 38.3 °F 30.3 in North 9 mph 10 mph 93% 0.000 in 53.00 W/m2
09:34 40.1 °F 38.1 °F 30.3 in North 10 mph 10 mph 93% 0.000 in 62.00 W/m2
09:39 40.1 °F 37.9 °F 30.3 in North 11 mph 12 mph 92% 0.000 in 76.00 W/m2
09:44 40.3 °F 38.1 °F 30.3 in North 10 mph 10 mph 92% 0.000 in 86.00 W/m2
09:49 40.3 °F 38.1 °F 30.3 in NNW 9 mph 10 mph 92% 0.000 in 77.00 W/m2
09:54 40.3 °F 38.1 °F 30.3 in NNW 12 mph 12 mph 92% 0.000 in 72.00 W/m2
09:59 40.3 °F 38.1 °F 30.3 in NW 14 mph 14 mph 92% 0.000 in 83.00 W/m2
10:04 40.1 °F 37.9 °F 30.3 in NNW 13 mph 14 mph 92% 0.000 in 76.00 W/m2
10:09 40.3 °F 38.1 °F 30.3 in North 12 mph 13 mph 92% 0.000 in 72.00 W/m2
10:14 40.3 °F 38.1 °F 30.3 in North 12 mph 13 mph 92% 0.000 in 76.00 W/m2
10:19 40.5 °F 38.3 °F 30.3 in North 12 mph 13 mph 92% 0.000 in 93.00 W/m2
10:24 40.6 °F 38.5 °F 30.3 in North 9 mph 13 mph 92% 0.000 in 91.00 W/m2
10:29 40.8 °F 38.7 °F 30.3 in NNW 10 mph 10 mph 92% 0.000 in 81.00 W/m2
10:34 40.6 °F 38.5 °F 30.3 in NNW 11 mph 13 mph 92% 0.000 in 77.00 W/m2
10:39 40.6 °F 38.5 °F 30.3 in North 11 mph 11 mph 92% 0.000 in 102.00 W/m2
10:44 40.6 °F 38.5 °F 30.3 in North 11 mph 11 mph 92% 0.000 in 102.00 W/m2
10:49 41.0 °F 38.8 °F 30.3 in North 9 mph 9 mph 92% 0.000 in 91.00 W/m2
10:54 40.8 °F 38.7 °F 30.3 in NNW 8 mph 9 mph 92% 0.000 in 97.00 W/m2
10:59 40.8 °F 38.7 °F 30.3 in NNW 13 mph 13 mph 92% 0.000 in 97.00 W/m2
11:04 40.8 °F 38.5 °F 30.3 in NNW 11 mph 13 mph 91% 0.000 in 109.00 W/m2
11:09 40.8 °F 38.7 °F 30.3 in NNW 12 mph 12 mph 92% 0.000 in 128.00 W/m2
11:14 41.2 °F 39.0 °F 30.3 in North 10 mph 12 mph 92% 0.000 in 127.00 W/m2
11:19 41.4 °F 39.0 °F 30.3 in North 9 mph 12 mph 91% 0.000 in 127.00 W/m2
11:24 41.4 °F 39.0 °F 30.3 in NNW 9 mph 10 mph 91% 0.000 in 139.00 W/m2
11:29 41.4 °F 39.0 °F 30.3 in North 11 mph 11 mph 91% 0.000 in 132.00 W/m2
11:34 41.4 °F 39.0 °F 30.3 in NW 11 mph 11 mph 91% 0.000 in 130.00 W/m2
11:39 41.5 °F 39.2 °F 30.3 in NNW 10 mph 11 mph 91% 0.000 in 137.00 W/m2
11:44 41.5 °F 39.2 °F 30.3 in NNW 10 mph 10 mph 91% 0.000 in 142.00 W/m2
11:49 41.5 °F 38.8 °F 30.3 in NNW 12 mph 12 mph 90% 0.000 in 139.00 W/m2
11:54 41.5 °F 38.8 °F 30.3 in NNW 10 mph 11 mph 90% 0.000 in 137.00 W/m2
11:59 41.5 °F 38.8 °F 30.3 in NW 9 mph 9 mph 90% 0.000 in 142.00 W/m2
12:04 41.5 °F 38.8 °F 30.3 in NW 10 mph 10 mph 90% 0.000 in 128.00 W/m2
12:09 41.2 °F 38.5 °F 30.3 in NW 11 mph 11 mph 90% 0.000 in 120.00 W/m2
12:14 41.2 °F 38.5 °F 30.3 in NW 9 mph 11 mph 90% 0.000 in 125.00 W/m2
12:19 40.8 °F 38.1 °F 30.3 in NNW 10 mph 12 mph 90% 0.000 in 120.00 W/m2
12:24 41.0 °F 38.3 °F 30.3 in NW 12 mph 12 mph 90% 0.000 in 116.00 W/m2
12:29 40.8 °F 38.1 °F 30.3 in NW 12 mph 13 mph 90% 0.000 in 113.00 W/m2
12:34 40.6 °F 37.9 °F 30.3 in NNW 10 mph 12 mph 90% 0.000 in 146.00 W/m2
12:39 40.8 °F 38.1 °F 30.3 in NNW 10 mph 10 mph 90% 0.000 in 153.00 W/m2
12:44 40.8 °F 38.1 °F 30.3 in NNW 11 mph 12 mph 90% 0.000 in 118.00 W/m2
12:49 40.8 °F 38.1 °F 30.3 in NW 13 mph 13 mph 90% 0.000 in 156.00 W/m2
12:54 40.8 °F 38.1 °F 30.3 in NNW 12 mph 13 mph 90% 0.000 in 163.00 W/m2
12:59 40.8 °F 37.8 °F 30.3 in NNW 9 mph 12 mph 89% 0.000 in 111.00 W/m2
13:04 40.8 °F 37.8 °F 30.3 in NW 11 mph 11 mph 89% 0.000 in 74.00 W/m2
13:09 40.6 °F 37.6 °F 30.3 in North 12 mph 13 mph 89% 0.000 in 109.00 W/m2
13:14 40.6 °F 37.6 °F 30.3 in North 9 mph 13 mph 89% 0.000 in 113.00 W/m2
13:19 40.8 °F 37.8 °F 30.3 in NNW 13 mph 13 mph 89% 0.000 in 137.00 W/m2
13:24 40.8 °F 37.8 °F 30.3 in NNW 11 mph 13 mph 89% 0.000 in 123.00 W/m2
13:29 40.6 °F 37.6 °F 30.3 in NW 11 mph 11 mph 89% 0.000 in 97.00 W/m2
13:34 40.5 °F 37.4 °F 30.3 in NW 10 mph 10 mph 89% 0.000 in 98.00 W/m2
13:39 40.3 °F 37.2 °F 30.3 in NNW 11 mph 11 mph 89% 0.000 in 77.00 W/m2
13:44 40.3 °F 37.0 °F 30.3 in NW 11 mph 13 mph 88% 0.000 in 83.00 W/m2
13:49 39.9 °F 36.9 °F 30.3 in NNW 12 mph 13 mph 89% 0.000 in 83.00 W/m2
13:54 39.7 °F 36.7 °F 30.3 in NNW 10 mph 12 mph 89% 0.000 in 114.00 W/m2
13:59 39.7 °F 36.7 °F 30.3 in NNW 13 mph 13 mph 89% 0.000 in 114.00 W/m2
14:04 39.9 °F 36.9 °F 30.3 in NNW 8 mph 11 mph 89% 0.000 in 105.00 W/m2
14:09 39.9 °F 36.9 °F 30.3 in NW 13 mph 13 mph 89% 0.000 in 113.00 W/m2
14:14 39.7 °F 36.7 °F 30.3 in NW 10 mph 13 mph 89% 0.000 in 113.00 W/m2
14:19 39.7 °F 36.7 °F 30.3 in NW 11 mph 12 mph 89% 0.000 in 109.00 W/m2
14:24 39.7 °F 36.7 °F 30.3 in NW 10 mph 11 mph 89% 0.000 in 105.00 W/m2
14:29 39.9 °F 36.9 °F 30.2 in NNW 13 mph 14 mph 89% 0.000 in 105.00 W/m2
14:34 39.9 °F 36.9 °F 30.2 in NNW 11 mph 13 mph 89% 0.000 in 102.00 W/m2
14:39 39.7 °F 36.7 °F 30.2 in NW 11 mph 12 mph 89% 0.000 in 109.00 W/m2
14:44 39.4 °F 36.5 °F 30.2 in NNW 10 mph 10 mph 89% 0.000 in 77.00 W/m2
14:49 39.6 °F 36.5 °F 30.2 in NNW 12 mph 12 mph 89% 0.000 in 95.00 W/m2
14:54 39.6 °F 36.5 °F 30.2 in NNW 13 mph 13 mph 89% 0.000 in 98.00 W/m2
14:59 39.7 °F 36.7 °F 30.2 in NNW 11 mph 13 mph 89% 0.000 in 107.00 W/m2
15:04 39.7 °F 36.7 °F 30.2 in NNW 11 mph 12 mph 89% 0.000 in 86.00 W/m2
15:09 39.6 °F 36.5 °F 30.2 in NW 12 mph 13 mph 89% 0.000 in 84.00 W/m2
15:14 39.2 °F 36.3 °F 30.2 in NNW 12 mph 13 mph 89% 0.000 in 70.00 W/m2
15:19 39.2 °F 36.3 °F 30.2 in NW 12 mph 13 mph 89% 0.000 in 77.00 W/m2
15:24 39.0 °F 36.1 °F 30.3 in NW 15 mph 16 mph 89% 0.000 in 65.00 W/m2
15:29 38.7 °F 35.8 °F 30.3 in NNW 12 mph 16 mph 89% 0.000 in 49.00 W/m2
15:34 38.5 °F 35.6 °F 30.3 in NW 13 mph 13 mph 89% 0.000 in 58.00 W/m2
15:39 38.5 °F 35.6 °F 30.3 in NW 12 mph 15 mph 90% 0.000 in 60.00 W/m2
15:44 38.3 °F 35.6 °F 30.3 in NNW 14 mph 15 mph 90% 0.000 in 51.00 W/m2
15:49 38.3 °F 35.6 °F 30.3 in NNW 13 mph 15 mph 90% 0.000 in 67.00 W/m2
15:54 38.1 °F 35.4 °F 30.3 in NNW 14 mph 15 mph 90% 0.000 in 74.00 W/m2
15:59 38.1 °F 35.4 °F 30.3 in North 12 mph 14 mph 90% 0.000 in 49.00 W/m2
16:04 38.1 °F 35.4 °F 30.3 in NNW 11 mph 14 mph 90% 0.000 in 46.00 W/m2
16:09 38.1 °F 35.4 °F 30.3 in NNW 14 mph 14 mph 90% 0.000 in 53.00 W/m2
16:14 38.1 °F 35.4 °F 30.3 in NW 13 mph 13 mph 90% 0.000 in 49.00 W/m2
16:19 37.9 °F 35.2 °F 30.3 in NW 12 mph 12 mph 90% 0.000 in 33.00 W/m2
16:24 37.9 °F 35.2 °F 30.3 in NW 14 mph 14 mph 90% 0.000 in 30.00 W/m2
16:29 37.8 °F 35.1 °F 30.3 in NW 11 mph 14 mph 90% 0.000 in 28.00 W/m2
16:34 37.8 °F 35.1 °F 30.3 in NNW 11 mph 11 mph 90% 0.000 in 28.00 W/m2
16:39 37.8 °F 35.1 °F 30.3 in NW 11 mph 13 mph 90% 0.000 in 23.00 W/m2
16:44 37.8 °F 35.1 °F 30.3 in NW 11 mph 13 mph 90% 0.000 in 23.00 W/m2
16:49 37.8 °F 35.1 °F 30.3 in NNW 9 mph 9 mph 90% 0.000 in 30.00 W/m2
16:54 37.8 °F 35.1 °F 30.3 in NNW 11 mph 12 mph 90% 0.000 in 19.00 W/m2
16:59 37.8 °F 35.1 °F 30.3 in NW 11 mph 12 mph 90% 0.000 in 16.00 W/m2
17:04 37.8 °F 35.1 °F 30.3 in NNW 12 mph 13 mph 90% 0.000 in 16.00 W/m2
17:09 37.8 °F 35.1 °F 30.3 in NNW 12 mph 13 mph 90% 0.000 in 11.00 W/m2
17:14 37.6 °F 34.9 °F 30.3 in North 19 mph 19 mph 90% 0.000 in 11.00 W/m2
Villages of Bridgestone, Spring, TX USA
Compliments of Weather Underground - 4 mb